Time;durP1;ratioP1;P1;durP2;ratioP2;P2;SDS_P1;SDS_P2;PMS_P1;PMS_P2;Temp;Humidity;BMP_temperature;BMP_pressure;BME280_temperature;BME280_humidity;BME280_pressure;Samples;Min_cycle;Max_cycle;Signal;HPM_P1;HPM_P2
2021/01/16 00:00:39;;;;;;;45.83;22.90;;;;;;;;;;5094147;28;20055;-50
2021/01/16 00:03:10;;;;;;;48.50;23.95;;;;;;;;;;5105452;28;20043;-49
2021/01/16 00:05:36;;;;;;;42.65;22.23;;;;;;;;;;5110905;27;20019;-50
2021/01/16 00:08:03;;;;;;;44.08;22.10;;;;;;;;;;5118153;27;20031;-50
2021/01/16 00:10:30;;;;;;;34.53;18.30;;;;;;;;;;5109419;28;20020;-51
2021/01/16 00:12:56;;;;;;;35.75;18.67;;;;;;;;;;5096714;28;20028;-49
2021/01/16 00:15:23;;;;;;;33.65;18.23;;;;;;;;;;5092317;28;20103;-50
2021/01/16 00:18:06;;;;;;;33.75;18.52;;;;;;;;;;5092189;28;20020;-50
2021/01/16 00:20:33;;;;;;;36.00;19.55;;;;;;;;;;5093978;28;20039;-50
2021/01/16 00:22:59;;;;;;;30.88;16.52;;;;;;;;;;5096027;28;20109;-50
2021/01/16 00:25:25;;;;;;;31.70;17.33;;;;;;;;;;5093097;28;20099;-49
2021/01/16 00:27:51;;;;;;;29.52;14.60;;;;;;;;;;5097933;28;20024;-50
2021/01/16 00:30:19;;;;;;;31.05;17.10;;;;;;;;;;5092823;28;20016;-50
2021/01/16 00:32:45;;;;;;;29.48;15.20;;;;;;;;;;5091963;28;20020;-49
2021/01/16 00:35:12;;;;;;;28.73;15.30;;;;;;;;;;5101468;28;20062;-48
2021/01/16 00:37:38;;;;;;;23.33;12.48;;;;;;;;;;5114796;28;20032;-50
2021/01/16 00:40:06;;;;;;;24.70;13.35;;;;;;;;;;5118546;27;20036;-51
2021/01/16 00:42:32;;;;;;;26.70;13.25;;;;;;;;;;5126799;28;20491;-50
2021/01/16 00:44:59;;;;;;;30.85;15.98;;;;;;;;;;5112610;28;20409;-50
2021/01/16 00:47:25;;;;;;;29.08;14.80;;;;;;;;;;5114931;28;20023;-51
2021/01/16 00:49:51;;;;;;;31.73;16.67;;;;;;;;;;5114656;28;20016;-51
2021/01/16 00:52:17;;;;;;;31.95;16.83;;;;;;;;;;5117844;28;20502;-49
2021/01/16 00:54:43;;;;;;;35.90;17.25;;;;;;;;;;5113992;28;20371;-50
2021/01/16 00:57:09;;;;;;;33.45;16.45;;;;;;;;;;5114289;28;20371;-50
2021/01/16 00:59:35;;;;;;;34.28;17.00;;;;;;;;;;5119380;28;20051;-50
2021/01/16 01:02:01;;;;;;;29.35;15.00;;;;;;;;;;5132570;28;20471;-49
2021/01/16 01:04:27;;;;;;;28.00;14.82;;;;;;;;;;5132813;27;20079;-51
2021/01/16 01:06:53;;;;;;;26.52;13.73;;;;;;;;;;5133111;28;20102;-50
2021/01/16 01:09:19;;;;;;;25.48;13.55;;;;;;;;;;5132776;28;20023;-49
2021/01/16 01:11:46;;;;;;;27.58;15.02;;;;;;;;;;5132299;28;20015;-51
2021/01/16 01:14:12;;;;;;;36.88;18.48;;;;;;;;;;5132619;27;20035;-51
2021/01/16 01:16:39;;;;;;;34.72;17.77;;;;;;;;;;5136190;27;20019;-50
2021/01/16 01:19:05;;;;;;;27.15;14.30;;;;;;;;;;5136910;27;20038;-50
2021/01/16 01:21:31;;;;;;;26.20;14.43;;;;;;;;;;5136423;27;20027;-50
2021/01/16 01:23:57;;;;;;;29.20;13.93;;;;;;;;;;5136555;27;20042;-50
2021/01/16 01:26:23;;;;;;;25.70;13.68;;;;;;;;;;5136494;27;20033;-50
2021/01/16 01:28:50;;;;;;;37.70;15.48;;;;;;;;;;5136814;27;20064;-50
2021/01/16 01:31:16;;;;;;;26.05;14.07;;;;;;;;;;5116228;27;20351;-50
2021/01/16 01:33:42;;;;;;;34.22;15.80;;;;;;;;;;5136647;27;20550;-51
2021/01/16 01:36:08;;;;;;;27.60;14.55;;;;;;;;;;5136190;27;20535;-50
2021/01/16 01:38:34;;;;;;;26.95;14.65;;;;;;;;;;5134794;27;20032;-50
2021/01/16 01:41:00;;;;;;;27.80;14.50;;;;;;;;;;5123502;27;20027;-50
2021/01/16 01:43:26;;;;;;;25.30;13.13;;;;;;;;;;5115797;27;20065;-50
2021/01/16 01:45:53;;;;;;;25.52;13.75;;;;;;;;;;5115783;28;20023;-50
2021/01/16 01:48:19;;;;;;;25.48;13.43;;;;;;;;;;5116196;28;20057;-50
2021/01/16 01:50:45;;;;;;;27.60;13.65;;;;;;;;;;5115746;28;20019;-51
2021/01/16 01:53:12;;;;;;;29.30;15.48;;;;;;;;;;5122040;27;20051;-50
2021/01/16 01:55:40;;;;;;;28.63;14.88;;;;;;;;;;5115620;28;20027;-50
2021/01/16 01:58:08;;;;;;;26.92;14.95;;;;;;;;;;5116274;27;20028;-50
2021/01/16 02:00:34;;;;;;;31.83;15.98;;;;;;;;;;5115353;28;20035;-50
2021/01/16 02:03:02;;;;;;;29.35;15.38;;;;;;;;;;5115051;28;20107;-50
2021/01/16 02:05:28;;;;;;;27.13;14.30;;;;;;;;;;5116759;27;20116;-50
2021/01/16 02:07:54;;;;;;;26.08;13.05;;;;;;;;;;5116519;27;20027;-49
2021/01/16 02:10:25;;;;;;;28.38;14.90;;;;;;;;;;5128809;27;20389;-49
2021/01/16 02:12:53;;;;;;;27.60;14.13;;;;;;;;;;5128420;27;20378;-48
2021/01/16 02:15:46;;;;;;;27.33;13.65;;;;;;;;;;5129855;27;20367;-49
2021/01/16 02:18:12;;;;;;;;;;;;;;;;;;5114689;27;20509;-50
2021/01/16 02:20:38;;;;;;;26.48;13.55;;;;;;;;;;5120080;27;19911;-49
2021/01/16 02:23:04;;;;;;;24.63;13.52;;;;;;;;;;5117097;27;20116;-49
2021/01/16 02:25:42;;;;;;;23.80;12.65;;;;;;;;;;5119403;27;20028;-49
2021/01/16 02:28:08;;;;;;;26.27;13.38;;;;;;;;;;5117159;27;20559;-51
2021/01/16 02:30:36;;;;;;;30.30;14.68;;;;;;;;;;5115535;27;20070;-48
2021/01/16 02:33:04;;;;;;;25.58;13.48;;;;;;;;;;5114451;27;20016;-50
2021/01/16 02:35:31;;;;;;;26.42;14.25;;;;;;;;;;5113961;27;20047;-49
2021/01/16 02:38:03;;;;;;;25.75;14.00;;;;;;;;;;5118528;27;20450;-49
2021/01/16 02:40:49;;;;;;;25.23;13.35;;;;;;;;;;5118756;27;20398;-49
2021/01/16 02:43:22;;;;;;;25.73;13.57;;;;;;;;;;5115296;27;20027;-50
2021/01/16 02:46:02;;;;;;;25.83;14.07;;;;;;;;;;5133372;27;20019;-49
2021/01/16 02:48:38;;;;;;;25.30;13.73;;;;;;;;;;5129001;27;20488;-51
2021/01/16 02:51:06;;;;;;;23.58;13.45;;;;;;;;;;5130823;27;20019;-50
2021/01/16 02:53:35;;;;;;;23.27;12.85;;;;;;;;;;5134772;27;20027;-50
2021/01/16 02:56:12;;;;;;;26.48;14.27;;;;;;;;;;5134758;27;20054;-51
2021/01/16 02:58:38;;;;;;;27.00;14.60;;;;;;;;;;5134947;27;20027;-51
2021/01/16 03:01:04;;;;;;;29.75;15.02;;;;;;;;;;5134596;27;20027;-50
2021/01/16 03:03:33;;;;;;;23.55;12.77;;;;;;;;;;5134924;27;20026;-49
2021/01/16 03:05:59;;;;;;;27.70;14.02;;;;;;;;;;5134180;27;20027;-48
2021/01/16 03:08:25;;;;;;;26.10;14.10;;;;;;;;;;5133688;27;20038;-49
2021/01/16 03:10:52;;;;;;;24.35;13.63;;;;;;;;;;5124097;27;20061;-50
2021/01/16 03:13:18;;;;;;;27.67;13.82;;;;;;;;;;5113540;28;20016;-50
2021/01/16 03:15:45;;;;;;;27.58;13.90;;;;;;;;;;5125375;27;20023;-50
2021/01/16 03:18:12;;;;;;;28.10;13.75;;;;;;;;;;5126224;27;20030;-50
2021/01/16 03:20:38;;;;;;;26.48;14.07;;;;;;;;;;5130126;27;20046;-49
2021/01/16 03:23:04;;;;;;;25.00;14.07;;;;;;;;;;5132272;27;20023;-50
2021/01/16 03:25:31;;;;;;;26.67;13.63;;;;;;;;;;5134288;27;20027;-50
2021/01/16 03:27:58;;;;;;;28.65;14.98;;;;;;;;;;5134021;27;20059;-48
2021/01/16 03:30:25;;;;;;;25.35;13.68;;;;;;;;;;5134324;27;20470;-49
2021/01/16 03:32:51;;;;;;;28.13;15.60;;;;;;;;;;5116080;27;20443;-50
2021/01/16 03:35:19;;;;;;;29.58;15.30;;;;;;;;;;5133767;27;20110;-50
2021/01/16 03:37:45;;;;;;;30.10;15.60;;;;;;;;;;5133623;27;20035;-49
2021/01/16 03:40:12;;;;;;;41.75;18.88;;;;;;;;;;5133948;27;20500;-50
2021/01/16 03:42:38;;;;;;;44.08;20.13;;;;;;;;;;5134344;27;20019;-50
2021/01/16 03:45:08;;;;;;;44.75;19.80;;;;;;;;;;5134009;27;20366;-50
2021/01/16 03:47:34;;;;;;;53.20;22.05;;;;;;;;;;5134238;27;20023;-50
2021/01/16 03:50:01;;;;;;;34.47;16.63;;;;;;;;;;5132121;27;20072;-50
2021/01/16 03:52:28;;;;;;;30.75;14.80;;;;;;;;;;5133028;27;20620;-48
2021/01/16 03:54:54;;;;;;;28.35;14.07;;;;;;;;;;5128112;27;20023;-48
2021/01/16 03:57:21;;;;;;;31.00;15.57;;;;;;;;;;5130788;27;20033;-50
2021/01/16 03:59:47;;;;;;;30.63;14.60;;;;;;;;;;5133847;27;20043;-51
2021/01/16 04:02:13;;;;;;;24.80;13.40;;;;;;;;;;5133905;27;20378;-50
2021/01/16 04:04:39;;;;;;;25.30;13.27;;;;;;;;;;5133659;27;20448;-50
2021/01/16 04:07:07;;;;;;;28.52;14.25;;;;;;;;;;5132951;27;20493;-50
2021/01/16 04:09:33;;;;;;;26.65;14.43;;;;;;;;;;5133698;27;20031;-50
2021/01/16 04:11:59;;;;;;;32.75;17.80;;;;;;;;;;5133925;27;20031;-50
2021/01/16 04:14:25;;;;;;;31.77;16.98;;;;;;;;;;5133661;27;20030;-50
2021/01/16 04:16:51;;;;;;;28.98;16.15;;;;;;;;;;5133728;27;20038;-50
2021/01/16 04:19:17;;;;;;;27.20;15.20;;;;;;;;;;5133555;27;20023;-50
2021/01/16 04:21:44;;;;;;;26.27;13.73;;;;;;;;;;5133174;27;20030;-50
2021/01/16 04:24:10;;;;;;;27.15;14.13;;;;;;;;;;5114838;27;20023;-50
2021/01/16 04:26:36;;;;;;;26.77;14.18;;;;;;;;;;5133217;27;20023;-50
2021/01/16 04:29:02;;;;;;;25.02;13.10;;;;;;;;;;5133440;27;20019;-50
2021/01/16 04:31:28;;;;;;;28.00;14.65;;;;;;;;;;5133159;27;20027;-50
2021/01/16 04:33:54;;;;;;;25.35;13.05;;;;;;;;;;5133259;27;20023;-50
2021/01/16 04:36:20;;;;;;;28.77;14.68;;;;;;;;;;5132747;27;20067;-50
2021/01/16 04:38:46;;;;;;;27.00;14.40;;;;;;;;;;5133164;27;20420;-50
2021/01/16 04:41:13;;;;;;;29.90;15.35;;;;;;;;;;5133165;27;20031;-50
2021/01/16 04:43:40;;;;;;;28.02;14.27;;;;;;;;;;5133391;28;20015;-50
2021/01/16 04:46:06;;;;;;;56.03;26.73;;;;;;;;;;5133423;28;20028;-50
2021/01/16 04:48:33;;;;;;;51.63;25.60;;;;;;;;;;5133138;28;20024;-50
2021/01/16 04:51:00;;;;;;;45.30;23.63;;;;;;;;;;5135050;27;20023;-49
2021/01/16 04:53:30;;;;;;;37.35;20.58;;;;;;;;;;5135529;27;20496;-50
2021/01/16 04:55:56;;;;;;;31.20;17.23;;;;;;;;;;5135921;27;20050;-50
2021/01/16 04:58:23;;;;;;;30.08;15.55;;;;;;;;;;5135488;27;20127;-50
2021/01/16 05:00:51;;;;;;;30.42;16.25;;;;;;;;;;5135489;27;20051;-50
2021/01/16 05:03:20;;;;;;;35.33;18.42;;;;;;;;;;5136152;27;20046;-50
2021/01/16 05:05:46;;;;;;;35.33;17.92;;;;;;;;;;5134726;27;20027;-49
2021/01/16 05:08:12;;;;;;;31.38;16.83;;;;;;;;;;5135716;27;20038;-50
2021/01/16 05:10:40;;;;;;;29.92;16.02;;;;;;;;;;5136771;27;20031;-51
2021/01/16 05:13:12;;;;;;;29.83;15.00;;;;;;;;;;5137165;27;20535;-50
2021/01/16 05:15:40;;;;;;;32.38;15.55;;;;;;;;;;5136894;27;20031;-50
2021/01/16 05:18:07;;;;;;;28.88;13.90;;;;;;;;;;5137099;27;20027;-50
2021/01/16 05:20:34;;;;;;;28.77;14.70;;;;;;;;;;5136062;27;20035;-50
2021/01/16 05:23:13;;;;;;;32.90;16.30;;;;;;;;;;5136843;27;20066;-50
2021/01/16 05:25:39;;;;;;;31.42;15.98;;;;;;;;;;5136483;27;20521;-50
2021/01/16 05:28:05;;;;;;;30.00;15.52;;;;;;;;;;5136756;27;20444;-50
2021/01/16 05:30:31;;;;;;;31.45;15.07;;;;;;;;;;5136680;27;20033;-50
2021/01/16 05:33:08;;;;;;;30.58;16.10;;;;;;;;;;5117646;27;20027;-50
2021/01/16 05:35:34;;;;;;;40.80;20.45;;;;;;;;;;5136476;27;20486;-50
2021/01/16 05:38:01;;;;;;;41.67;20.75;;;;;;;;;;5136019;27;20074;-50
2021/01/16 05:40:29;;;;;;;38.15;19.50;;;;;;;;;;5136505;27;20035;-50
2021/01/16 05:42:55;;;;;;;39.55;20.27;;;;;;;;;;5136452;27;20076;-50
2021/01/16 05:45:21;;;;;;;47.15;26.20;;;;;;;;;;5136146;27;20028;-50
2021/01/16 05:47:47;;;;;;;39.60;20.88;;;;;;;;;;5136362;27;20011;-50
2021/01/16 05:50:13;;;;;;;37.03;20.00;;;;;;;;;;5133490;27;20077;-48
2021/01/16 05:52:40;;;;;;;36.90;19.95;;;;;;;;;;5133826;27;20023;-49
2021/01/16 05:55:07;;;;;;;32.22;17.88;;;;;;;;;;5134176;27;20298;-50
2021/01/16 05:57:33;;;;;;;31.83;17.42;;;;;;;;;;5135909;27;20030;-50
2021/01/16 06:00:01;;;;;;;31.83;16.58;;;;;;;;;;5136005;27;20458;-50
2021/01/16 06:02:31;;;;;;;29.67;16.15;;;;;;;;;;5135315;27;20058;-50
2021/01/16 06:04:58;;;;;;;32.30;17.20;;;;;;;;;;5136012;27;20027;-49
2021/01/16 06:07:25;;;;;;;37.42;18.20;;;;;;;;;;5134374;27;20478;-50
2021/01/16 06:09:51;;;;;;;36.20;19.48;;;;;;;;;;5136048;27;20444;-49
2021/01/16 06:12:19;;;;;;;44.15;22.92;;;;;;;;;;5135934;27;20023;-50
2021/01/16 06:14:46;;;;;;;48.80;24.77;;;;;;;;;;5135960;27;20061;-50
2021/01/16 06:17:13;;;;;;;56.80;27.77;;;;;;;;;;5135697;27;20094;-50
2021/01/16 06:19:43;;;;;;;64.65;31.35;;;;;;;;;;5117154;27;20051;-50
2021/01/16 06:22:10;;;;;;;66.43;31.45;;;;;;;;;;5135883;27;20571;-50
2021/01/16 06:24:36;;;;;;;67.00;31.35;;;;;;;;;;5135639;27;20110;-51
2021/01/16 06:27:03;;;;;;;56.53;27.27;;;;;;;;;;5135966;27;20027;-49
2021/01/16 06:29:29;;;;;;;58.53;29.98;;;;;;;;;;5135403;27;20023;-50
2021/01/16 06:32:08;;;;;;;68.25;33.65;;;;;;;;;;5126192;27;20020;-50
2021/01/16 06:34:35;;;;;;;81.75;38.60;;;;;;;;;;5119975;27;20110;-50
2021/01/16 06:37:05;;;;;;;80.53;39.22;;;;;;;;;;5128560;27;20024;-49
2021/01/16 06:39:35;;;;;;;102.78;46.95;;;;;;;;;;5119962;27;20028;-49
2021/01/16 06:42:11;;;;;;;62.88;32.88;;;;;;;;;;5113874;27;20015;-49
2021/01/16 06:44:38;;;;;;;75.70;40.05;;;;;;;;;;5125754;27;20027;-50
2021/01/16 06:47:04;;;;;;;76.82;41.15;;;;;;;;;;5133569;27;20027;-49
2021/01/16 06:49:31;;;;;;;78.57;40.55;;;;;;;;;;5134284;27;20035;-49
2021/01/16 06:52:06;;;;;;;86.95;44.60;;;;;;;;;;5133155;27;20432;-51
2021/01/16 06:54:36;;;;;;;82.22;41.97;;;;;;;;;;5133493;27;20054;-50
2021/01/16 06:57:09;;;;;;;78.45;40.58;;;;;;;;;;5133589;27;20046;-50
2021/01/16 06:59:35;;;;;;;103.55;50.90;;;;;;;;;;5134871;27;20031;-52
2021/01/16 07:02:14;;;;;;;116.53;54.58;;;;;;;;;;5134539;27;20054;-50
2021/01/16 07:04:50;;;;;;;103.85;52.83;;;;;;;;;;5134789;27;20107;-51
2021/01/16 07:07:17;;;;;;;90.28;45.10;;;;;;;;;;5134736;27;20027;-51
2021/01/16 07:09:44;;;;;;;112.60;53.85;;;;;;;;;;5134753;27;20023;-51
2021/01/16 07:12:10;;;;;;;90.10;43.08;;;;;;;;;;5134432;27;20522;-51
2021/01/16 07:14:36;;;;;;;91.90;47.55;;;;;;;;;;5134047;27;20019;-50
2021/01/16 07:17:02;;;;;;;88.72;44.53;;;;;;;;;;5132502;27;20075;-50
2021/01/16 07:19:30;;;;;;;116.32;57.67;;;;;;;;;;5134234;27;20069;-49
2021/01/16 07:21:57;;;;;;;84.25;44.90;;;;;;;;;;5134704;27;20049;-50
2021/01/16 07:24:24;;;;;;;107.28;54.53;;;;;;;;;;5123890;27;20027;-51
2021/01/16 07:26:51;;;;;;;141.55;72.70;;;;;;;;;;5134520;27;20023;-50
2021/01/16 07:29:17;;;;;;;126.47;60.83;;;;;;;;;;5134266;27;20019;-51
2021/01/16 07:31:44;;;;;;;175.43;78.10;;;;;;;;;;5134516;27;20140;-50
2021/01/16 07:34:11;;;;;;;183.52;82.43;;;;;;;;;;5133992;27;20050;-50
2021/01/16 07:36:37;;;;;;;127.50;60.70;;;;;;;;;;5134323;27;20023;-51
2021/01/16 07:39:05;;;;;;;122.57;68.70;;;;;;;;;;5133776;27;20023;-50
2021/01/16 07:41:32;;;;;;;133.32;66.88;;;;;;;;;;5133414;27;20019;-50
2021/01/16 07:43:58;;;;;;;121.18;61.22;;;;;;;;;;5123849;27;20082;-50
2021/01/16 07:46:29;;;;;;;145.27;73.97;;;;;;;;;;5115228;27;20020;-49
2021/01/16 07:48:59;;;;;;;85.55;46.70;;;;;;;;;;5120003;27;20419;-50
2021/01/16 07:51:27;;;;;;;71.68;38.85;;;;;;;;;;5130279;27;20034;-50
2021/01/16 07:53:56;;;;;;;78.25;42.20;;;;;;;;;;5127143;27;20032;-51
2021/01/16 07:56:22;;;;;;;72.53;38.15;;;;;;;;;;5128318;27;20034;-50
2021/01/16 07:59:12;;;;;;;64.65;36.45;;;;;;;;;;5133764;27;20055;-51
2021/01/16 08:01:38;;;;;;;90.82;46.45;;;;;;;;;;5120315;27;20043;-50
2021/01/16 08:04:24;;;;;;;76.90;42.05;;;;;;;;;;5133673;27;20055;-49
2021/01/16 08:07:04;;;;;;;79.38;41.13;;;;;;;;;;5133725;27;20023;-49
2021/01/16 08:09:49;;;;;;;53.50;28.63;;;;;;;;;;5133589;27;20019;-52
2021/01/16 08:12:15;;;;;;;54.22;29.70;;;;;;;;;;5133506;27;20011;-50
2021/01/16 08:14:41;;;;;;;59.88;32.55;;;;;;;;;;5132640;27;20474;-49
2021/01/16 08:17:12;;;;;;;83.25;42.38;;;;;;;;;;5133025;27;20533;-50
2021/01/16 08:19:47;;;;;;;136.00;64.03;;;;;;;;;;5133526;27;20032;-49
2021/01/16 08:22:17;;;;;;;61.55;34.00;;;;;;;;;;5133341;27;20020;-50
2021/01/16 08:25:02;;;;;;;58.80;34.10;;;;;;;;;;5132935;27;20039;-50
2021/01/16 08:27:29;;;;;;;64.18;35.55;;;;;;;;;;5133279;27;20443;-50
2021/01/16 08:29:56;;;;;;;61.28;34.60;;;;;;;;;;5133264;27;20047;-50
2021/01/16 08:32:22;;;;;;;62.50;35.03;;;;;;;;;;5132210;27;20530;-56
2021/01/16 08:35:04;;;;;;;57.60;31.48;;;;;;;;;;5132548;27;20035;-50
2021/01/16 08:37:35;;;;;;;57.45;31.55;;;;;;;;;;5130829;27;20023;-49
2021/01/16 08:40:11;;;;;;;61.08;32.80;;;;;;;;;;5132479;27;20062;-50
2021/01/16 08:42:53;;;;;;;55.40;30.80;;;;;;;;;;5132451;27;20054;-51
2021/01/16 08:45:19;;;;;;;60.80;34.05;;;;;;;;;;5133348;27;20031;-51
2021/01/16 08:47:52;;;;;;;52.15;30.77;;;;;;;;;;5132921;27;20020;-51
2021/01/16 08:50:18;;;;;;;55.50;31.63;;;;;;;;;;5133090;28;20027;-52
2021/01/16 08:52:44;;;;;;;58.97;33.97;;;;;;;;;;5132482;28;20030;-52
2021/01/16 08:55:10;;;;;;;63.88;33.65;;;;;;;;;;5132787;28;20027;-50
2021/01/16 08:57:38;;;;;;;53.42;30.13;;;;;;;;;;5132320;28;20019;-50
2021/01/16 09:00:16;;;;;;;53.85;29.35;;;;;;;;;;5132545;28;20474;-51
2021/01/16 09:02:43;;;;;;;57.42;33.15;;;;;;;;;;5133035;28;20033;-51
2021/01/16 09:05:22;;;;;;;59.22;33.65;;;;;;;;;;5132251;28;20020;-50
2021/01/16 09:07:49;;;;;;;58.80;32.97;;;;;;;;;;5132327;28;20055;-50
2021/01/16 09:10:21;;;;;;;60.67;34.50;;;;;;;;;;5132647;28;20504;-51
2021/01/16 09:12:47;;;;;;;71.75;38.20;;;;;;;;;;5131859;28;20026;-51
2021/01/16 09:15:17;;;;;;;67.40;37.20;;;;;;;;;;5130012;28;20451;-50
2021/01/16 09:18:01;;;;;;;87.70;45.80;;;;;;;;;;5123766;28;20089;-50
2021/01/16 09:20:28;;;;;;;63.08;32.67;;;;;;;;;;5131783;28;20425;-51
2021/01/16 09:22:54;;;;;;;49.00;28.20;;;;;;;;;;5132336;28;20496;-50
2021/01/16 09:25:20;;;;;;;54.35;27.67;;;;;;;;;;5131399;28;20534;-50
2021/01/16 09:27:47;;;;;;;58.05;32.33;;;;;;;;;;5130379;28;20036;-51
2021/01/16 09:30:22;;;;;;;62.83;34.30;;;;;;;;;;5125587;28;20027;-49
2021/01/16 09:32:49;;;;;;;43.97;26.85;;;;;;;;;;5124156;28;20554;-50
2021/01/16 09:35:34;;;;;;;62.95;36.03;;;;;;;;;;5122300;28;20089;-50
2021/01/16 09:38:00;;;;;;;65.10;34.83;;;;;;;;;;5131741;27;20431;-49
2021/01/16 09:40:34;;;;;;;69.97;35.85;;;;;;;;;;5117505;27;20479;-50
2021/01/16 09:43:12;;;;;;;55.88;29.38;;;;;;;;;;5135611;27;20023;-49
2021/01/16 09:45:49;;;;;;;47.00;24.90;;;;;;;;;;5134752;27;20027;-48
2021/01/16 09:48:41;;;;;;;43.50;25.38;;;;;;;;;;5134293;27;20019;-48
2021/01/16 09:51:08;;;;;;;62.20;30.05;;;;;;;;;;5126167;27;20073;-53
2021/01/16 09:53:35;;;;;;;124.60;48.53;;;;;;;;;;5133532;27;20034;-50
2021/01/16 09:56:01;;;;;;;65.43;35.30;;;;;;;;;;5132119;27;20055;-49
2021/01/16 09:58:31;;;;;;;72.68;38.53;;;;;;;;;;5129276;27;20027;-49
2021/01/16 10:01:15;;;;;;;68.97;37.20;;;;;;;;;;5122670;27;20043;-49
2021/01/16 10:03:42;;;;;;;67.88;37.63;;;;;;;;;;5114174;27;20046;-50
2021/01/16 10:06:08;;;;;;;81.18;43.30;;;;;;;;;;5113374;27;20039;-50
2021/01/16 10:08:35;;;;;;;75.88;39.95;;;;;;;;;;5116138;27;20042;-50
2021/01/16 10:11:04;;;;;;;85.93;43.80;;;;;;;;;;5122383;27;20081;-51
2021/01/16 10:13:32;;;;;;;83.32;41.75;;;;;;;;;;5127364;27;20027;-50
2021/01/16 10:15:59;;;;;;;78.30;41.72;;;;;;;;;;5122592;27;20105;-51
2021/01/16 10:18:27;;;;;;;80.82;42.05;;;;;;;;;;5129480;27;20052;-48
2021/01/16 10:21:19;;;;;;;96.40;50.13;;;;;;;;;;5134734;27;20483;-50
2021/01/16 10:23:45;;;;;;;45.22;26.42;;;;;;;;;;5125936;27;20032;-48
2021/01/16 10:26:12;;;;;;;41.88;23.92;;;;;;;;;;5127998;27;20106;-50
2021/01/16 10:28:58;;;;;;;43.47;25.75;;;;;;;;;;5134574;27;20023;-48
2021/01/16 10:31:25;;;;;;;43.58;26.10;;;;;;;;;;5133954;27;20035;-48
2021/01/16 10:33:51;;;;;;;44.33;26.88;;;;;;;;;;5135350;27;20126;-47
2021/01/16 10:36:18;;;;;;;42.70;24.13;;;;;;;;;;5120179;27;20494;-50
2021/01/16 10:38:55;;;;;;;55.83;32.05;;;;;;;;;;5101980;27;20474;-51
2021/01/16 10:41:33;;;;;;;52.13;30.92;;;;;;;;;;5124923;27;20031;-50
2021/01/16 10:44:00;;;;;;;74.50;44.92;;;;;;;;;;5103642;28;20020;-51
2021/01/16 10:46:32;;;;;;;50.67;29.98;;;;;;;;;;5108395;27;20463;-50
2021/01/16 10:49:16;;;;;;;45.10;27.13;;;;;;;;;;5093932;28;20470;-53
2021/01/16 10:51:50;;;;;;;42.05;25.17;;;;;;;;;;5097588;28;20028;-51
2021/01/16 10:54:17;;;;;;;37.67;24.70;;;;;;;;;;5099330;28;20042;-49
2021/01/16 10:57:03;;;;;;;41.03;27.65;;;;;;;;;;5093668;28;20028;-49
2021/01/16 10:59:31;;;;;;;41.30;27.75;;;;;;;;;;5095965;28;20039;-49
2021/01/16 11:01:58;;;;;;;41.25;27.13;;;;;;;;;;5097761;28;20034;-50
2021/01/16 11:04:29;;;;;;;41.55;28.77;;;;;;;;;;5110935;28;20059;-50
2021/01/16 11:06:59;;;;;;;45.03;30.42;;;;;;;;;;5101126;28;20653;-51
2021/01/16 11:09:34;;;;;;;36.83;26.63;;;;;;;;;;5093435;28;20031;-51
2021/01/16 11:12:04;;;;;;;33.28;23.88;;;;;;;;;;5104694;28;20030;-50
2021/01/16 11:14:40;;;;;;;33.35;25.00;;;;;;;;;;5116625;27;20100;-51
2021/01/16 11:17:07;;;;;;;46.63;32.88;;;;;;;;;;5107321;28;20031;-51
2021/01/16 11:19:38;;;;;;;29.85;21.88;;;;;;;;;;5111981;28;20504;-51
2021/01/16 11:22:07;;;;;;;32.78;24.45;;;;;;;;;;5103507;28;20111;-51
2021/01/16 11:24:54;;;;;;;31.55;22.90;;;;;;;;;;5090323;28;20032;-51
2021/01/16 11:27:23;;;;;;;41.55;29.67;;;;;;;;;;5112304;28;20022;-52
2021/01/16 11:29:49;;;;;;;36.90;26.27;;;;;;;;;;5095694;28;20027;-52
2021/01/16 11:32:19;;;;;;;40.45;29.05;;;;;;;;;;5094929;28;20024;-50
2021/01/16 11:35:17;;;;;;;41.53;30.52;;;;;;;;;;5100849;28;20036;-51
2021/01/16 11:37:50;;;;;;;31.40;23.67;;;;;;;;;;5003844;28;20386;-50
2021/01/16 11:40:28;;;;;;;37.75;29.50;;;;;;;;;;5000916;28;20053;-52
2021/01/16 11:42:54;;;;;;;43.47;32.35;;;;;;;;;;5004376;28;20033;-50
2021/01/16 11:45:21;;;;;;;52.95;40.58;;;;;;;;;;4999204;28;20033;-51
2021/01/16 11:47:50;;;;;;;77.22;55.75;;;;;;;;;;4995260;28;20038;-50
2021/01/16 11:50:17;;;;;;;55.33;41.92;;;;;;;;;;4997937;28;20042;-50
2021/01/16 11:52:43;;;;;;;45.58;34.47;;;;;;;;;;4996489;28;20113;-51
2021/01/16 11:55:13;;;;;;;42.88;33.22;;;;;;;;;;5009571;28;20511;-53
2021/01/16 11:57:40;;;;;;;42.75;32.83;;;;;;;;;;5003273;28;20610;-50
2021/01/16 12:00:06;;;;;;;48.80;35.78;;;;;;;;;;5010039;28;20057;-51
2021/01/16 12:02:33;;;;;;;35.90;24.33;;;;;;;;;;5006724;28;20034;-51
2021/01/16 12:04:59;;;;;;;34.75;25.00;;;;;;;;;;5009719;28;20440;-50
2021/01/16 12:07:26;;;;;;;28.10;20.13;;;;;;;;;;5012546;28;20370;-49
2021/01/16 12:09:52;;;;;;;31.25;22.42;;;;;;;;;;5011539;28;20018;-49
2021/01/16 12:12:18;;;;;;;29.98;21.70;;;;;;;;;;5020890;27;20022;-51
2021/01/16 12:14:44;;;;;;;33.10;22.60;;;;;;;;;;5133317;27;20033;-51
2021/01/16 12:17:19;;;;;;;32.78;22.13;;;;;;;;;;5133193;27;20428;-51
2021/01/16 12:19:50;;;;;;;33.63;20.83;;;;;;;;;;5132995;27;20034;-51
2021/01/16 12:22:20;;;;;;;29.13;18.42;;;;;;;;;;5114693;27;20023;-51
2021/01/16 12:24:47;;;;;;;73.70;38.20;;;;;;;;;;5113421;27;20397;-53
2021/01/16 12:27:13;;;;;;;42.63;24.23;;;;;;;;;;5133187;27;20480;-51
2021/01/16 12:29:41;;;;;;;43.03;25.25;;;;;;;;;;5133141;27;20079;-51
2021/01/16 12:32:11;;;;;;;38.00;24.55;;;;;;;;;;5125361;27;20575;-52
2021/01/16 12:34:47;;;;;;;43.65;25.50;;;;;;;;;;5131572;27;20118;-50
2021/01/16 12:37:14;;;;;;;44.13;26.73;;;;;;;;;;5127845;27;20039;-50
2021/01/16 12:39:44;;;;;;;51.45;29.73;;;;;;;;;;5127830;27;20032;-52
2021/01/16 12:42:11;;;;;;;45.15;27.17;;;;;;;;;;5131170;27;20382;-52
2021/01/16 12:44:37;;;;;;;44.13;26.08;;;;;;;;;;5130750;27;20031;-49
2021/01/16 12:47:03;;;;;;;37.17;22.40;;;;;;;;;;5116434;27;20028;-49
2021/01/16 12:49:29;;;;;;;43.10;25.88;;;;;;;;;;5119387;28;20023;-50
2021/01/16 12:51:55;;;;;;;44.20;25.75;;;;;;;;;;5129568;28;20378;-51
2021/01/16 12:54:21;;;;;;;45.67;27.55;;;;;;;;;;5132693;28;20019;-51
2021/01/16 12:56:48;;;;;;;50.72;30.15;;;;;;;;;;5132029;28;20108;-51
2021/01/16 12:59:15;;;;;;;49.50;29.45;;;;;;;;;;5132565;28;20019;-51
2021/01/16 13:01:50;;;;;;;53.53;33.13;;;;;;;;;;5132947;28;20094;-51
2021/01/16 13:04:17;;;;;;;40.35;23.95;;;;;;;;;;5126863;28;20533;-50
2021/01/16 13:06:44;;;;;;;47.58;28.92;;;;;;;;;;5125573;28;20300;-51
2021/01/16 13:09:10;;;;;;;66.40;38.75;;;;;;;;;;5132858;28;20016;-50
2021/01/16 13:11:38;;;;;;;41.35;24.98;;;;;;;;;;5134200;27;20023;-51
2021/01/16 13:14:04;;;;;;;50.85;31.55;;;;;;;;;;5137106;27;20019;-50
2021/01/16 13:16:43;;;;;;;50.42;31.10;;;;;;;;;;5136877;27;20442;-51
2021/01/16 13:19:09;;;;;;;54.55;31.17;;;;;;;;;;5136994;27;20023;-51
2021/01/16 13:21:36;;;;;;;55.90;32.13;;;;;;;;;;5136714;27;20072;-50
2021/01/16 13:24:03;;;;;;;54.75;31.60;;;;;;;;;;5137016;27;20454;-53
2021/01/16 13:26:38;;;;;;;45.53;26.35;;;;;;;;;;5136890;27;20023;-51
2021/01/16 13:29:06;;;;;;;47.08;25.55;;;;;;;;;;5136767;27;20019;-50
2021/01/16 13:31:32;;;;;;;41.15;23.52;;;;;;;;;;5136860;27;20019;-50
2021/01/16 13:33:58;;;;;;;68.68;36.78;;;;;;;;;;5136348;27;20363;-51
2021/01/16 13:36:25;;;;;;;57.15;30.85;;;;;;;;;;5136816;27;20501;-50
2021/01/16 13:38:53;;;;;;;77.38;40.63;;;;;;;;;;5136162;27;20398;-51
2021/01/16 13:41:20;;;;;;;63.90;34.53;;;;;;;;;;5136747;27;20023;-50
2021/01/16 13:43:47;;;;;;;65.03;35.20;;;;;;;;;;5118136;27;20023;-50
2021/01/16 13:46:14;;;;;;;59.72;31.15;;;;;;;;;;5136460;27;20076;-50
2021/01/16 13:48:41;;;;;;;47.45;28.08;;;;;;;;;;5136145;27;20045;-50
2021/01/16 13:51:20;;;;;;;52.38;30.50;;;;;;;;;;5136701;27;20037;-50
2021/01/16 13:54:12;;;;;;;40.53;22.95;;;;;;;;;;5136167;27;20023;-50
2021/01/16 13:56:38;;;;;;;;;;;;;;;;;;5132124;27;20409;-50
2021/01/16 13:59:05;;;;;;;41.70;23.45;;;;;;;;;;5136017;27;19922;-50
2021/01/16 14:01:32;;;;;;;37.47;22.25;;;;;;;;;;5135809;27;20496;-50
2021/01/16 14:04:06;;;;;;;48.20;26.85;;;;;;;;;;5135892;27;20106;-50
2021/01/16 14:06:50;;;;;;;55.25;30.60;;;;;;;;;;5136084;27;20062;-51
2021/01/16 14:09:28;;;;;;;53.28;29.85;;;;;;;;;;5135766;27;20216;-51
2021/01/16 14:11:57;;;;;;;61.47;35.17;;;;;;;;;;5135512;27;20022;-50
2021/01/16 14:14:28;;;;;;;70.80;39.40;;;;;;;;;;5122104;27;20468;-50
2021/01/16 14:17:13;;;;;;;72.10;38.72;;;;;;;;;;5117797;27;20034;-50
2021/01/16 14:19:40;;;;;;;80.13;42.50;;;;;;;;;;5122872;27;20019;-50
2021/01/16 14:22:06;;;;;;;75.60;38.58;;;;;;;;;;5128703;27;20055;-51
2021/01/16 14:24:32;;;;;;;65.18;35.65;;;;;;;;;;5128073;27;20016;-51
2021/01/16 14:26:59;;;;;;;76.90;42.38;;;;;;;;;;5116181;27;20024;-50